KSYF

Cheyenne County Municipal Airport

St Francis, Kansas, USA
METAR KSYF 191815Z AUTO 10003KT 10SM CLR 30/13 A2983 RMK AO2 T03030133
Observed Flight Rules
Sep-19 @ 18:15 UTC (33 minutes ago) Visual Flight Rules
Wind Visibility Clouds
100° at 3 knots 10 miles
  • Clear skies
Temperatures Readings
Current 30°C / 86°F
Dewpoint 13°C / 55°F
Humidity 35%
Altimeter 29.83" Hg
Pressure 1010 hPa
Elevation 1025
METAR KSYF 191815Z AUTO 10003KT 10SM CLR 30/13 A2983 RMK AO2 T03030133
Observed Flight Rules
Sep-19 @ 18:15 UTC
(33 minutes ago)
VFR
Wind Visibility
100° at 3 knots 10 miles
Clouds
  • Clear skies
Temperature Dewpoint
30°C / 86°F 13°C / 55°F
Humidity Altimeter Pressure
35% 29.83" Hg 1010 hPa